sensor_id;sensor_type;location;lat;lon;timestamp;pressure;altitude;pressure_sealevel;temperature;humidity
35716;BME280;21840;44.920;8.616;2023-04-08T00:02:11;100481.66;;;14.69;52.33
35716;BME280;21840;44.920;8.616;2023-04-08T00:04:36;100481.69;;;14.25;53.32
35716;BME280;21840;44.920;8.616;2023-04-08T00:07:02;100480.88;;;14.51;52.81
35716;BME280;21840;44.920;8.616;2023-04-08T00:09:27;100487.44;;;14.46;53.09
35716;BME280;21840;44.920;8.616;2023-04-08T00:11:52;100483.34;;;14.78;52.41
35716;BME280;21840;44.920;8.616;2023-04-08T00:14:17;100482.94;;;14.39;53.37
35716;BME280;21840;44.920;8.616;2023-04-08T00:16:43;100485.09;;;14.35;53.20
35716;BME280;21840;44.920;8.616;2023-04-08T00:19:08;100479.53;;;14.46;53.42
35716;BME280;21840;44.920;8.616;2023-04-08T00:21:33;100475.56;;;14.77;52.66
35716;BME280;21840;44.920;8.616;2023-04-08T00:23:59;100479.44;;;14.91;52.35
35716;BME280;21840;44.920;8.616;2023-04-08T00:26:24;100477.72;;;14.73;52.54
35716;BME280;21840;44.920;8.616;2023-04-08T00:28:50;100473.94;;;14.84;52.46
35716;BME280;21840;44.920;8.616;2023-04-08T00:31:15;100481.31;;;14.72;52.72
35716;BME280;21840;44.920;8.616;2023-04-08T00:33:41;100476.34;;;14.61;52.94
35716;BME280;21840;44.920;8.616;2023-04-08T00:36:06;100478.00;;;14.70;52.79
35716;BME280;21840;44.920;8.616;2023-04-08T00:38:32;100483.53;;;14.85;52.38
35716;BME280;21840;44.920;8.616;2023-04-08T00:40:57;100481.66;;;14.69;52.62
35716;BME280;21840;44.920;8.616;2023-04-08T00:43:22;100472.94;;;14.51;52.98
35716;BME280;21840;44.920;8.616;2023-04-08T00:45:48;100473.72;;;14.69;52.49
35716;BME280;21840;44.920;8.616;2023-04-08T00:48:13;100478.78;;;14.54;52.71
35716;BME280;21840;44.920;8.616;2023-04-08T00:50:39;100468.34;;;14.53;52.78
35716;BME280;21840;44.920;8.616;2023-04-08T00:53:05;100465.34;;;13.95;53.30
35716;BME280;21840;44.920;8.616;2023-04-08T00:55:30;100461.00;;;13.86;53.83
35716;BME280;21840;44.920;8.616;2023-04-08T00:57:56;100463.97;;;13.47;54.64
35716;BME280;21840;44.920;8.616;2023-04-08T01:00:22;100458.91;;;13.72;54.38
35716;BME280;21840;44.920;8.616;2023-04-08T01:02:50;100457.66;;;13.58;54.93
35716;BME280;21840;44.920;8.616;2023-04-08T01:05:43;100455.00;;;13.58;54.86
35716;BME280;21840;44.920;8.616;2023-04-08T01:08:09;100451.22;;;13.61;54.74
35716;BME280;21840;44.920;8.616;2023-04-08T01:10:36;100450.78;;;13.47;55.07
35716;BME280;21840;44.920;8.616;2023-04-08T01:13:07;100456.03;;;13.47;54.79
35716;BME280;21840;44.920;8.616;2023-04-08T01:15:34;100448.97;;;13.02;56.22
35716;BME280;21840;44.920;8.616;2023-04-08T01:18:00;100443.88;;;13.01;56.16
35716;BME280;21840;44.920;8.616;2023-04-08T01:20:30;100443.09;;;12.90;56.97
35716;BME280;21840;44.920;8.616;2023-04-08T01:25:22;100446.41;;;12.92;56.44
35716;BME280;21840;44.920;8.616;2023-04-08T01:27:48;100433.84;;;13.04;56.41
35716;BME280;21840;44.920;8.616;2023-04-08T01:30:16;100441.44;;;13.35;55.79
35716;BME280;21840;44.920;8.616;2023-04-08T01:32:42;100439.47;;;13.55;55.13
35716;BME280;21840;44.920;8.616;2023-04-08T01:35:09;100434.13;;;13.47;55.06
35716;BME280;21840;44.920;8.616;2023-04-08T01:37:34;100430.13;;;13.61;54.82
35716;BME280;21840;44.920;8.616;2023-04-08T01:40:00;100440.72;;;13.69;54.55
35716;BME280;21840;44.920;8.616;2023-04-08T01:42:26;100435.38;;;13.43;54.64
35716;BME280;21840;44.920;8.616;2023-04-08T01:44:57;100444.34;;;13.68;54.15
35716;BME280;21840;44.920;8.616;2023-04-08T01:47:23;100444.66;;;13.65;54.20
35716;BME280;21840;44.920;8.616;2023-04-08T01:49:50;100451.22;;;13.78;53.91
35716;BME280;21840;44.920;8.616;2023-04-08T01:52:17;100455.06;;;13.30;54.92
35716;BME280;21840;44.920;8.616;2023-04-08T01:54:44;100460.22;;;13.04;55.48
35716;BME280;21840;44.920;8.616;2023-04-08T01:57:10;100467.16;;;13.51;54.35
35716;BME280;21840;44.920;8.616;2023-04-08T01:59:36;100459.56;;;13.74;53.87
35716;BME280;21840;44.920;8.616;2023-04-08T02:02:04;100466.75;;;13.64;54.02
35716;BME280;21840;44.920;8.616;2023-04-08T02:04:32;100463.84;;;13.75;53.69
35716;BME280;21840;44.920;8.616;2023-04-08T02:06:58;100463.75;;;13.58;54.21
35716;BME280;21840;44.920;8.616;2023-04-08T02:09:23;100463.44;;;13.62;53.96
35716;BME280;21840;44.920;8.616;2023-04-08T02:11:49;100464.81;;;13.66;54.03
35716;BME280;21840;44.920;8.616;2023-04-08T02:14:14;100453.69;;;13.62;53.88
35716;BME280;21840;44.920;8.616;2023-04-08T02:16:41;100457.19;;;13.45;54.01
35716;BME280;21840;44.920;8.616;2023-04-08T02:19:10;100456.72;;;13.67;53.81
35716;BME280;21840;44.920;8.616;2023-04-08T02:21:47;100460.06;;;13.51;53.98
35716;BME280;21840;44.920;8.616;2023-04-08T02:24:14;100461.41;;;13.37;54.65
35716;BME280;21840;44.920;8.616;2023-04-08T02:26:41;100456.13;;;13.37;54.74
35716;BME280;21840;44.920;8.616;2023-04-08T02:29:08;100451.16;;;13.34;54.57
35716;BME280;21840;44.920;8.616;2023-04-08T02:31:36;100450.19;;;13.53;54.37
35716;BME280;21840;44.920;8.616;2023-04-08T02:34:02;100455.88;;;13.67;53.97
35716;BME280;21840;44.920;8.616;2023-04-08T02:36:30;100455.97;;;13.39;54.36
35716;BME280;21840;44.920;8.616;2023-04-08T02:39:00;100450.91;;;13.64;53.99
35716;BME280;21840;44.920;8.616;2023-04-08T02:41:29;100458.47;;;13.58;54.17
35716;BME280;21840;44.920;8.616;2023-04-08T02:43:57;100462.31;;;13.64;54.08
35716;BME280;21840;44.920;8.616;2023-04-08T02:46:22;100458.28;;;13.60;53.73
35716;BME280;21840;44.920;8.616;2023-04-08T02:48:48;100452.19;;;13.59;54.07
35716;BME280;21840;44.920;8.616;2023-04-08T02:51:14;100452.84;;;13.79;53.43
35716;BME280;21840;44.920;8.616;2023-04-08T02:53:39;100455.75;;;13.50;53.92
35716;BME280;21840;44.920;8.616;2023-04-08T02:56:05;100450.25;;;13.62;53.81
35716;BME280;21840;44.920;8.616;2023-04-08T02:58:30;100454.16;;;13.57;53.99
35716;BME280;21840;44.920;8.616;2023-04-08T03:00:55;100449.56;;;13.59;53.72
35716;BME280;21840;44.920;8.616;2023-04-08T03:03:21;100460.03;;;13.69;53.40
35716;BME280;21840;44.920;8.616;2023-04-08T03:05:56;100464.88;;;13.56;53.64
35716;BME280;21840;44.920;8.616;2023-04-08T03:08:22;100461.78;;;13.61;53.67
35716;BME280;21840;44.920;8.616;2023-04-08T03:10:47;100459.38;;;13.49;53.90
35716;BME280;21840;44.920;8.616;2023-04-08T03:13:16;100456.72;;;13.67;53.64
35716;BME280;21840;44.920;8.616;2023-04-08T03:15:41;100451.38;;;13.59;53.87
35716;BME280;21840;44.920;8.616;2023-04-08T03:18:06;100450.69;;;13.57;53.66
35716;BME280;21840;44.920;8.616;2023-04-08T03:20:32;100450.00;;;13.55;53.62
35716;BME280;21840;44.920;8.616;2023-04-08T03:22:57;100446.78;;;13.43;54.05
35716;BME280;21840;44.920;8.616;2023-04-08T03:25:22;100450.63;;;13.31;54.35
35716;BME280;21840;44.920;8.616;2023-04-08T03:27:48;100451.16;;;13.34;54.18
35716;BME280;21840;44.920;8.616;2023-04-08T03:30:13;100452.66;;;13.37;54.03
35716;BME280;21840;44.920;8.616;2023-04-08T03:32:38;100457.25;;;13.35;54.31
35716;BME280;21840;44.920;8.616;2023-04-08T03:35:04;100462.03;;;13.22;54.64
35716;BME280;21840;44.920;8.616;2023-04-08T03:37:30;100451.31;;;13.05;54.90
35716;BME280;21840;44.920;8.616;2023-04-08T03:39:55;100463.84;;;13.03;54.89
35716;BME280;21840;44.920;8.616;2023-04-08T03:42:21;100466.66;;;12.92;54.92
35716;BME280;21840;44.920;8.616;2023-04-08T03:44:46;100465.47;;;12.86;54.96
35716;BME280;21840;44.920;8.616;2023-04-08T03:47:11;100462.38;;;12.63;54.69
35716;BME280;21840;44.920;8.616;2023-04-08T03:49:37;100452.25;;;12.68;54.56
35716;BME280;21840;44.920;8.616;2023-04-08T03:52:02;100454.91;;;12.59;53.93
35716;BME280;21840;44.920;8.616;2023-04-08T03:54:27;100453.09;;;12.59;54.25
35716;BME280;21840;44.920;8.616;2023-04-08T03:56:54;100458.06;;;12.25;54.71
35716;BME280;21840;44.920;8.616;2023-04-08T03:59:19;100469.63;;;12.14;54.86
35716;BME280;21840;44.920;8.616;2023-04-08T04:01:45;100467.69;;;12.16;54.40
35716;BME280;21840;44.920;8.616;2023-04-08T04:04:11;100462.97;;;12.00;54.63
35716;BME280;21840;44.920;8.616;2023-04-08T04:06:36;100464.91;;;12.08;53.99
35716;BME280;21840;44.920;8.616;2023-04-08T04:09:02;100457.06;;;11.69;54.79
35716;BME280;21840;44.920;8.616;2023-04-08T04:11:27;100468.16;;;11.53;54.42
35716;BME280;21840;44.920;8.616;2023-04-08T04:13:52;100459.28;;;11.44;54.31
35716;BME280;21840;44.920;8.616;2023-04-08T04:16:18;100456.50;;;11.56;54.13
35716;BME280;21840;44.920;8.616;2023-04-08T04:18:43;100460.75;;;10.98;54.58
35716;BME280;21840;44.920;8.616;2023-04-08T04:21:08;100468.63;;;11.08;54.76
35716;BME280;21840;44.920;8.616;2023-04-08T04:23:34;100471.25;;;10.98;55.23
35716;BME280;21840;44.920;8.616;2023-04-08T04:25:59;100475.94;;;10.54;55.93
35716;BME280;21840;44.920;8.616;2023-04-08T04:28:24;100478.13;;;10.49;56.22
35716;BME280;21840;44.920;8.616;2023-04-08T04:30:50;100474.22;;;10.74;55.46
35716;BME280;21840;44.920;8.616;2023-04-08T04:33:15;100477.94;;;10.72;55.68
35716;BME280;21840;44.920;8.616;2023-04-08T04:35:40;100478.72;;;10.63;55.98
35716;BME280;21840;44.920;8.616;2023-04-08T04:38:06;100477.38;;;11.18;54.60
35716;BME280;21840;44.920;8.616;2023-04-08T04:40:35;100484.34;;;10.79;55.20
35716;BME280;21840;44.920;8.616;2023-04-08T04:43:00;100481.53;;;10.71;55.70
35716;BME280;21840;44.920;8.616;2023-04-08T04:45:26;100481.31;;;10.84;56.08
35716;BME280;21840;44.920;8.616;2023-04-08T04:47:51;100477.94;;;11.22;54.50
35716;BME280;21840;44.920;8.616;2023-04-08T04:50:16;100486.59;;;10.63;55.70
35716;BME280;21840;44.920;8.616;2023-04-08T04:52:42;100491.22;;;10.80;55.42
35716;BME280;21840;44.920;8.616;2023-04-08T04:55:07;100488.13;;;10.65;55.38
35716;BME280;21840;44.920;8.616;2023-04-08T04:57:32;100488.88;;;10.77;55.45
35716;BME280;21840;44.920;8.616;2023-04-08T04:59:58;100494.16;;;10.87;55.00
35716;BME280;21840;44.920;8.616;2023-04-08T05:02:23;100491.94;;;10.82;55.28
35716;BME280;21840;44.920;8.616;2023-04-08T05:04:48;100494.91;;;10.98;54.39
35716;BME280;21840;44.920;8.616;2023-04-08T05:07:14;100497.53;;;10.68;54.85
35716;BME280;21840;44.920;8.616;2023-04-08T05:09:39;100500.09;;;10.79;55.12
35716;BME280;21840;44.920;8.616;2023-04-08T05:12:04;100506.16;;;10.79;55.04
35716;BME280;21840;44.920;8.616;2023-04-08T05:14:30;100501.72;;;11.11;54.53
35716;BME280;21840;44.920;8.616;2023-04-08T05:16:55;100507.69;;;11.32;53.89
35716;BME280;21840;44.920;8.616;2023-04-08T05:19:21;100504.94;;;11.63;52.96
35716;BME280;21840;44.920;8.616;2023-04-08T05:21:46;100511.34;;;11.00;54.78
35716;BME280;21840;44.920;8.616;2023-04-08T05:24:11;100510.53;;;11.00;55.14
35716;BME280;21840;44.920;8.616;2023-04-08T05:26:37;100515.94;;;11.18;55.04
35716;BME280;21840;44.920;8.616;2023-04-08T05:29:02;100512.59;;;10.56;56.14
35716;BME280;21840;44.920;8.616;2023-04-08T05:31:27;100510.03;;;11.16;55.13
35716;BME280;21840;44.920;8.616;2023-04-08T05:33:52;100511.81;;;11.25;54.86
35716;BME280;21840;44.920;8.616;2023-04-08T05:36:18;100510.72;;;11.28;54.81
35716;BME280;21840;44.920;8.616;2023-04-08T05:38:43;100510.91;;;11.36;54.86
35716;BME280;21840;44.920;8.616;2023-04-08T05:41:09;100511.53;;;11.09;55.20
35716;BME280;21840;44.920;8.616;2023-04-08T05:43:34;100515.09;;;11.08;54.91
35716;BME280;21840;44.920;8.616;2023-04-08T05:46:04;100519.34;;;11.59;53.54
35716;BME280;21840;44.920;8.616;2023-04-08T05:48:29;100519.47;;;11.48;54.35
35716;BME280;21840;44.920;8.616;2023-04-08T05:50:55;100521.16;;;11.49;54.46
35716;BME280;21840;44.920;8.616;2023-04-08T05:53:21;100514.63;;;11.62;54.42
35716;BME280;21840;44.920;8.616;2023-04-08T05:55:46;100520.72;;;11.73;53.94
35716;BME280;21840;44.920;8.616;2023-04-08T05:58:11;100523.63;;;11.60;54.29
35716;BME280;21840;44.920;8.616;2023-04-08T06:00:37;100528.78;;;11.71;53.97
35716;BME280;21840;44.920;8.616;2023-04-08T06:03:02;100530.34;;;11.93;53.70
35716;BME280;21840;44.920;8.616;2023-04-08T06:05:27;100528.78;;;11.81;53.52
35716;BME280;21840;44.920;8.616;2023-04-08T06:07:52;100537.50;;;11.81;54.23
35716;BME280;21840;44.920;8.616;2023-04-08T06:10:18;100541.53;;;11.76;54.34
35716;BME280;21840;44.920;8.616;2023-04-08T06:12:43;100542.88;;;11.70;55.20
35716;BME280;21840;44.920;8.616;2023-04-08T06:15:09;100547.59;;;11.76;54.58
35716;BME280;21840;44.920;8.616;2023-04-08T06:17:37;100542.34;;;12.15;53.95
35716;BME280;21840;44.920;8.616;2023-04-08T06:20:03;100550.09;;;11.58;54.80
35716;BME280;21840;44.920;8.616;2023-04-08T06:22:28;100546.94;;;11.94;54.07
35716;BME280;21840;44.920;8.616;2023-04-08T06:24:54;100555.75;;;11.83;54.92
35716;BME280;21840;44.920;8.616;2023-04-08T06:27:19;100547.88;;;12.32;54.02
35716;BME280;21840;44.920;8.616;2023-04-08T06:29:45;100543.31;;;12.24;54.31
35716;BME280;21840;44.920;8.616;2023-04-08T06:32:11;100545.25;;;12.32;53.62
35716;BME280;21840;44.920;8.616;2023-04-08T06:34:37;100544.53;;;12.29;54.14
35716;BME280;21840;44.920;8.616;2023-04-08T06:37:02;100540.25;;;12.38;53.93
35716;BME280;21840;44.920;8.616;2023-04-08T06:39:27;100541.94;;;12.67;53.42
35716;BME280;21840;44.920;8.616;2023-04-08T06:41:53;100550.53;;;12.79;53.60
35716;BME280;21840;44.920;8.616;2023-04-08T06:44:32;100547.84;;;13.16;51.88
35716;BME280;21840;44.920;8.616;2023-04-08T06:46:57;100550.63;;;13.42;51.17
35716;BME280;21840;44.920;8.616;2023-04-08T06:49:23;100546.34;;;13.13;52.47
35716;BME280;21840;44.920;8.616;2023-04-08T06:51:48;100557.31;;;12.81;52.95
35716;BME280;21840;44.920;8.616;2023-04-08T06:54:13;100554.75;;;13.27;51.48
35716;BME280;21840;44.920;8.616;2023-04-08T06:56:39;100553.97;;;13.44;50.89
35716;BME280;21840;44.920;8.616;2023-04-08T06:59:04;100558.03;;;13.56;51.30
35716;BME280;21840;44.920;8.616;2023-04-08T07:01:29;100560.78;;;14.00;50.52
35716;BME280;21840;44.920;8.616;2023-04-08T07:03:56;100559.34;;;13.88;50.99
35716;BME280;21840;44.920;8.616;2023-04-08T07:06:21;100554.28;;;13.95;50.73
35716;BME280;21840;44.920;8.616;2023-04-08T07:08:46;100558.88;;;13.75;50.57
35716;BME280;21840;44.920;8.616;2023-04-08T07:11:12;100558.66;;;13.86;51.22
35716;BME280;21840;44.920;8.616;2023-04-08T07:13:37;100557.66;;;14.23;50.73
35716;BME280;21840;44.920;8.616;2023-04-08T07:16:02;100550.00;;;14.38;50.45
35716;BME280;21840;44.920;8.616;2023-04-08T07:18:28;100557.00;;;14.73;50.14
35716;BME280;21840;44.920;8.616;2023-04-08T07:20:53;100558.16;;;14.71;50.09
35716;BME280;21840;44.920;8.616;2023-04-08T07:23:19;100561.41;;;14.91;49.95
35716;BME280;21840;44.920;8.616;2023-04-08T07:25:45;100561.84;;;15.20;49.29
35716;BME280;21840;44.920;8.616;2023-04-08T07:28:11;100563.19;;;14.56;51.01
35716;BME280;21840;44.920;8.616;2023-04-08T07:30:36;100564.34;;;14.87;50.15
35716;BME280;21840;44.920;8.616;2023-04-08T07:33:01;100567.75;;;15.14;49.66
35716;BME280;21840;44.920;8.616;2023-04-08T07:35:27;100558.97;;;15.05;49.45
35716;BME280;21840;44.920;8.616;2023-04-08T07:37:53;100563.03;;;15.26;49.22
35716;BME280;21840;44.920;8.616;2023-04-08T07:40:19;100565.44;;;15.11;49.20
35716;BME280;21840;44.920;8.616;2023-04-08T07:42:44;100561.69;;;15.30;49.26
35716;BME280;21840;44.920;8.616;2023-04-08T07:45:12;100567.72;;;15.57;48.18
35716;BME280;21840;44.920;8.616;2023-04-08T07:47:38;100570.50;;;15.30;48.63
35716;BME280;21840;44.920;8.616;2023-04-08T07:50:03;100567.25;;;15.53;48.42
35716;BME280;21840;44.920;8.616;2023-04-08T07:52:29;100566.13;;;15.13;49.58
35716;BME280;21840;44.920;8.616;2023-04-08T07:54:54;100571.38;;;15.56;48.94
35716;BME280;21840;44.920;8.616;2023-04-08T07:57:19;100573.09;;;15.81;48.10
35716;BME280;21840;44.920;8.616;2023-04-08T07:59:45;100571.47;;;16.21;47.13
35716;BME280;21840;44.920;8.616;2023-04-08T08:02:10;100569.63;;;15.81;48.15
35716;BME280;21840;44.920;8.616;2023-04-08T08:04:35;100581.41;;;16.11;47.45
35716;BME280;21840;44.920;8.616;2023-04-08T08:07:01;100582.06;;;16.37;46.74
35716;BME280;21840;44.920;8.616;2023-04-08T08:09:26;100579.88;;;15.92;47.87
35716;BME280;21840;44.920;8.616;2023-04-08T08:11:52;100584.34;;;15.75;47.78
35716;BME280;21840;44.920;8.616;2023-04-08T08:14:17;100580.22;;;15.97;47.46
35716;BME280;21840;44.920;8.616;2023-04-08T08:16:42;100581.22;;;16.04;47.45
35716;BME280;21840;44.920;8.616;2023-04-08T08:19:08;100571.13;;;15.83;48.35
35716;BME280;21840;44.920;8.616;2023-04-08T08:21:37;100579.88;;;15.84;48.14
35716;BME280;21840;44.920;8.616;2023-04-08T08:24:03;100580.88;;;15.99;48.04
35716;BME280;21840;44.920;8.616;2023-04-08T08:26:28;100588.91;;;15.57;48.86
35716;BME280;21840;44.920;8.616;2023-04-08T08:28:54;100586.84;;;15.85;48.92
35716;BME280;21840;44.920;8.616;2023-04-08T08:31:19;100584.22;;;16.26;48.29
35716;BME280;21840;44.920;8.616;2023-04-08T08:33:44;100582.06;;;16.37;47.77
35716;BME280;21840;44.920;8.616;2023-04-08T08:36:10;100588.66;;;15.92;48.98
35716;BME280;21840;44.920;8.616;2023-04-08T08:38:36;100581.56;;;15.93;49.43
35716;BME280;21840;44.920;8.616;2023-04-08T08:41:01;100580.06;;;16.39;48.47
35716;BME280;21840;44.920;8.616;2023-04-08T08:43:28;100593.97;;;16.42;48.11
35716;BME280;21840;44.920;8.616;2023-04-08T08:45:53;100589.84;;;16.39;48.34
35716;BME280;21840;44.920;8.616;2023-04-08T08:48:19;100593.09;;;16.74;47.42
35716;BME280;21840;44.920;8.616;2023-04-08T08:50:44;100588.13;;;16.79;46.41
35716;BME280;21840;44.920;8.616;2023-04-08T08:53:10;100592.09;;;16.91;46.45
35716;BME280;21840;44.920;8.616;2023-04-08T08:55:36;100591.38;;;17.06;46.30
35716;BME280;21840;44.920;8.616;2023-04-08T08:58:03;100596.00;;;17.12;46.26
35716;BME280;21840;44.920;8.616;2023-04-08T09:00:39;100593.63;;;17.17;45.98
35716;BME280;21840;44.920;8.616;2023-04-08T09:03:14;100590.16;;;17.16;45.99
35716;BME280;21840;44.920;8.616;2023-04-08T09:05:46;100588.94;;;17.27;45.71
35716;BME280;21840;44.920;8.616;2023-04-08T09:10:49;100589.25;;;17.32;44.74
35716;BME280;21840;44.920;8.616;2023-04-08T09:13:14;100589.50;;;17.54;44.00
35716;BME280;21840;44.920;8.616;2023-04-08T09:18:24;100592.97;;;17.54;43.13
35716;BME280;21840;44.920;8.616;2023-04-08T09:20:52;100582.31;;;17.31;43.42
35716;BME280;21840;44.920;8.616;2023-04-08T09:23:17;100575.47;;;17.37;43.18
35716;BME280;21840;44.920;8.616;2023-04-08T09:25:43;100580.75;;;17.45;43.10
35716;BME280;21840;44.920;8.616;2023-04-08T09:28:17;100569.63;;;17.41;42.58
35716;BME280;21840;44.920;8.616;2023-04-08T09:30:43;100575.72;;;17.81;41.64
35716;BME280;21840;44.920;8.616;2023-04-08T09:33:08;100568.59;;;17.51;41.54
35716;BME280;21840;44.920;8.616;2023-04-08T09:35:33;100569.72;;;17.87;41.42
35716;BME280;21840;44.920;8.616;2023-04-08T09:37:58;100568.31;;;18.00;40.41
35716;BME280;21840;44.920;8.616;2023-04-08T09:40:27;100566.13;;;17.80;40.79
35716;BME280;21840;44.920;8.616;2023-04-08T09:42:54;100563.75;;;18.08;41.14
35716;BME280;21840;44.920;8.616;2023-04-08T09:45:21;100573.59;;;18.23;41.38
35716;BME280;21840;44.920;8.616;2023-04-08T09:50:19;100558.81;;;18.20;41.32
35716;BME280;21840;44.920;8.616;2023-04-08T09:52:47;100555.84;;;18.38;40.34
35716;BME280;21840;44.920;8.616;2023-04-08T09:55:22;100555.06;;;18.29;39.95
35716;BME280;21840;44.920;8.616;2023-04-08T09:57:50;100556.47;;;18.40;39.61
35716;BME280;21840;44.920;8.616;2023-04-08T10:00:29;100552.84;;;18.18;40.08
35716;BME280;21840;44.920;8.616;2023-04-08T10:03:08;100548.53;;;18.55;39.24
35716;BME280;21840;44.920;8.616;2023-04-08T10:05:35;100548.88;;;18.52;38.88
35716;BME280;21840;44.920;8.616;2023-04-08T10:08:01;100553.56;;;18.65;37.56
35716;BME280;21840;44.920;8.616;2023-04-08T10:10:27;100544.84;;;18.71;38.11
35716;BME280;21840;44.920;8.616;2023-04-08T10:12:53;100552.63;;;18.43;38.59
35716;BME280;21840;44.920;8.616;2023-04-08T10:15:22;100547.50;;;18.56;38.91
35716;BME280;21840;44.920;8.616;2023-04-08T10:17:51;100554.97;;;18.75;38.52
35716;BME280;21840;44.920;8.616;2023-04-08T10:23:00;100548.47;;;18.78;37.52
35716;BME280;21840;44.920;8.616;2023-04-08T10:27:51;100545.25;;;18.98;37.00
35716;BME280;21840;44.920;8.616;2023-04-08T10:32:57;100535.50;;;18.75;37.68
35716;BME280;21840;44.920;8.616;2023-04-08T10:35:36;100544.44;;;18.97;36.11
35716;BME280;21840;44.920;8.616;2023-04-08T10:38:02;100539.66;;;18.78;36.00
35716;BME280;21840;44.920;8.616;2023-04-08T10:40:27;100538.09;;;18.98;34.73
35716;BME280;21840;44.920;8.616;2023-04-08T10:42:56;100534.09;;;19.09;34.52
35716;BME280;21840;44.920;8.616;2023-04-08T10:45:21;100539.97;;;19.19;36.03
35716;BME280;21840;44.920;8.616;2023-04-08T10:47:46;100530.19;;;19.41;36.41
35716;BME280;21840;44.920;8.616;2023-04-08T10:50:16;100528.03;;;19.30;36.38
35716;BME280;21840;44.920;8.616;2023-04-08T10:52:53;100526.22;;;19.15;36.73
35716;BME280;21840;44.920;8.616;2023-04-08T10:55:22;100529.91;;;19.36;36.45
35716;BME280;21840;44.920;8.616;2023-04-08T10:57:51;100534.81;;;19.54;36.25
35716;BME280;21840;44.920;8.616;2023-04-08T11:00:17;100522.84;;;19.86;35.73
35716;BME280;21840;44.920;8.616;2023-04-08T11:02:42;100522.78;;;20.01;35.69
35716;BME280;21840;44.920;8.616;2023-04-08T11:05:08;100520.84;;;19.88;35.11
35716;BME280;21840;44.920;8.616;2023-04-08T11:07:38;100519.28;;;20.00;35.23
35716;BME280;21840;44.920;8.616;2023-04-08T11:10:03;100511.09;;;20.30;34.79
35716;BME280;21840;44.920;8.616;2023-04-08T11:12:30;100509.94;;;20.39;34.28
35716;BME280;21840;44.920;8.616;2023-04-08T11:14:56;100515.97;;;20.20;33.74
35716;BME280;21840;44.920;8.616;2023-04-08T11:17:21;100522.22;;;20.06;33.55
35716;BME280;21840;44.920;8.616;2023-04-08T11:19:47;100511.81;;;19.89;33.64
35716;BME280;21840;44.920;8.616;2023-04-08T11:22:13;100510.41;;;19.93;32.98
35716;BME280;21840;44.920;8.616;2023-04-08T11:24:38;100502.63;;;20.20;32.51
35716;BME280;21840;44.920;8.616;2023-04-08T11:27:04;100491.16;;;20.26;32.62
35716;BME280;21840;44.920;8.616;2023-04-08T11:29:32;100490.06;;;20.14;32.44
35716;BME280;21840;44.920;8.616;2023-04-08T11:31:58;100486.06;;;20.31;32.31
35716;BME280;21840;44.920;8.616;2023-04-08T11:34:24;100487.06;;;20.23;32.49
35716;BME280;21840;44.920;8.616;2023-04-08T11:36:49;100485.75;;;20.13;33.14
35716;BME280;21840;44.920;8.616;2023-04-08T11:39:15;100491.75;;;19.93;33.35
35716;BME280;21840;44.920;8.616;2023-04-08T11:41:40;100480.91;;;20.23;32.70
35716;BME280;21840;44.920;8.616;2023-04-08T11:44:06;100472.38;;;20.06;33.09
35716;BME280;21840;44.920;8.616;2023-04-08T11:46:31;100467.28;;;20.11;33.02
35716;BME280;21840;44.920;8.616;2023-04-08T11:48:58;100461.66;;;20.28;33.09
35716;BME280;21840;44.920;8.616;2023-04-08T11:51:23;100460.22;;;20.32;33.06
35716;BME280;21840;44.920;8.616;2023-04-08T11:53:48;100453.94;;;20.81;32.74
35716;BME280;21840;44.920;8.616;2023-04-08T11:56:19;100450.44;;;20.80;33.11
35716;BME280;21840;44.920;8.616;2023-04-08T11:58:45;100446.38;;;20.84;32.76
35716;BME280;21840;44.920;8.616;2023-04-08T12:01:12;100442.31;;;21.02;32.71
35716;BME280;21840;44.920;8.616;2023-04-08T12:03:37;100434.09;;;21.10;32.17
35716;BME280;21840;44.920;8.616;2023-04-08T12:06:02;100436.94;;;20.95;31.65
35716;BME280;21840;44.920;8.616;2023-04-08T12:08:29;100429.97;;;21.01;31.12
35716;BME280;21840;44.920;8.616;2023-04-08T12:10:54;100429.19;;;21.07;31.06
35716;BME280;21840;44.920;8.616;2023-04-08T12:13:20;100424.91;;;21.32;30.93
35716;BME280;21840;44.920;8.616;2023-04-08T12:15:45;100429.44;;;21.32;30.70
35716;BME280;21840;44.920;8.616;2023-04-08T12:18:10;100435.13;;;21.09;30.88
35716;BME280;21840;44.920;8.616;2023-04-08T12:20:36;100432.03;;;21.05;30.60
35716;BME280;21840;44.920;8.616;2023-04-08T12:23:01;100431.00;;;21.06;30.07
35716;BME280;21840;44.920;8.616;2023-04-08T12:25:27;100421.59;;;21.30;29.80
35716;BME280;21840;44.920;8.616;2023-04-08T12:27:53;100414.47;;;21.44;29.71
35716;BME280;21840;44.920;8.616;2023-04-08T12:30:18;100412.22;;;21.54;29.11
35716;BME280;21840;44.920;8.616;2023-04-08T12:32:43;100408.84;;;21.26;28.97
35716;BME280;21840;44.920;8.616;2023-04-08T12:35:11;100407.47;;;21.43;28.29
35716;BME280;21840;44.920;8.616;2023-04-08T12:37:36;100405.00;;;21.42;28.09
35716;BME280;21840;44.920;8.616;2023-04-08T12:40:02;100407.44;;;21.57;27.43
35716;BME280;21840;44.920;8.616;2023-04-08T12:42:27;100399.66;;;21.55;27.70
35716;BME280;21840;44.920;8.616;2023-04-08T12:44:53;100397.00;;;21.55;26.98
35716;BME280;21840;44.920;8.616;2023-04-08T12:47:21;100404.50;;;20.98;25.75
35716;BME280;21840;44.920;8.616;2023-04-08T12:49:47;100398.38;;;21.31;25.45
35716;BME280;21840;44.920;8.616;2023-04-08T12:52:12;100400.41;;;21.02;26.79
35716;BME280;21840;44.920;8.616;2023-04-08T12:54:37;100394.03;;;20.97;26.85
35716;BME280;21840;44.920;8.616;2023-04-08T12:57:02;100397.56;;;21.17;26.94
35716;BME280;21840;44.920;8.616;2023-04-08T12:59:28;100392.38;;;20.96;27.00
35716;BME280;21840;44.920;8.616;2023-04-08T13:01:54;100386.03;;;21.23;27.14
35716;BME280;21840;44.920;8.616;2023-04-08T13:04:19;100385.66;;;21.46;27.49